createdAt,value
2018-09-11T00:01:45.770Z,20.00
2018-09-11T00:04:13.858Z,20.20
2018-09-11T00:06:41.946Z,20.20
2018-09-11T00:09:11.985Z,20.00
2018-09-11T00:11:40.323Z,20.20
2018-09-11T00:14:08.439Z,20.20
2018-09-11T00:16:36.698Z,20.20
2018-09-11T00:19:04.881Z,20.50
2018-09-11T00:21:33.285Z,20.10
2018-09-11T00:24:01.470Z,20.10
2018-09-11T00:26:29.558Z,20.40
2018-09-11T00:28:57.654Z,20.70
2018-09-11T00:31:25.765Z,20.30
2018-09-11T00:33:53.862Z,19.80
2018-09-11T00:36:21.958Z,20.50
2018-09-11T00:38:50.066Z,20.00
2018-09-11T00:41:18.146Z,19.90
2018-09-11T00:43:46.238Z,19.70
2018-09-11T00:46:14.335Z,19.90
2018-09-11T00:48:42.431Z,19.40
2018-09-11T00:51:10.528Z,18.70
2018-09-11T00:53:38.623Z,18.90
2018-09-11T00:56:06.727Z,19.60
2018-09-11T00:58:34.810Z,19.80
2018-09-11T01:01:02.887Z,19.80
2018-09-11T01:03:30.986Z,20.50
2018-09-11T01:05:59.071Z,20.70
2018-09-11T01:08:27.150Z,21.40
2018-09-11T01:10:55.262Z,21.30
2018-09-11T01:13:23.338Z,21.30
2018-09-11T01:15:51.438Z,21.20
2018-09-11T01:18:19.527Z,21.40
2018-09-11T01:20:47.618Z,21.60
2018-09-11T01:23:15.707Z,21.30
2018-09-11T01:25:43.803Z,21.10
2018-09-11T01:28:11.907Z,21.10
2018-09-11T01:30:39.994Z,21.10
2018-09-11T01:33:08.096Z,21.70
2018-09-11T01:35:36.182Z,21.10
2018-09-11T01:38:04.274Z,21.00
2018-09-11T01:40:32.370Z,20.90
2018-09-11T01:43:00.450Z,20.30
2018-09-11T01:45:28.542Z,20.70
2018-09-11T01:47:56.622Z,21.60
2018-09-11T01:50:24.722Z,21.80
2018-09-11T01:52:52.803Z,21.90
2018-09-11T01:55:20.890Z,22.70
2018-09-11T01:57:48.988Z,23.20
2018-09-11T02:00:18.043Z,23.30
2018-09-11T02:02:46.811Z,23.30
2018-09-11T02:05:14.903Z,23.80
2018-09-11T02:07:43.762Z,23.80
2018-09-11T02:10:12.359Z,23.60
2018-09-11T02:12:40.480Z,23.80
2018-09-11T02:15:09.382Z,23.20
2018-09-11T02:17:37.586Z,23.20
2018-09-11T02:20:05.694Z,23.20
2018-09-11T02:22:33.785Z,23.10
2018-09-11T02:25:01.899Z,23.00
2018-09-11T02:27:29.986Z,23.10
2018-09-11T02:29:58.093Z,23.10
2018-09-11T02:32:26.530Z,23.00
2018-09-11T02:34:54.626Z,22.70
2018-09-11T02:37:22.707Z,22.50
2018-09-11T02:39:50.818Z,22.40
2018-09-11T02:42:18.906Z,22.90
2018-09-11T02:44:47.010Z,23.10
2018-09-11T02:47:15.139Z,23.50
2018-09-11T02:49:43.226Z,24.30
2018-09-11T02:52:11.313Z,24.90
2018-09-11T02:54:39.439Z,24.90
2018-09-11T02:57:07.646Z,24.80
2018-09-11T02:59:35.750Z,25.30
2018-09-11T03:02:03.830Z,25.50
2018-09-11T03:04:31.922Z,25.50
2018-09-11T03:06:59.999Z,25.90
2018-09-11T03:09:28.127Z,26.20
2018-09-11T03:11:56.220Z,25.80
2018-09-11T03:14:24.311Z,26.40
2018-09-11T03:16:52.402Z,25.90
2018-09-11T03:19:20.509Z,26.40
2018-09-11T03:21:48.618Z,27.00
2018-09-11T03:24:16.744Z,26.80
2018-09-11T03:26:44.878Z,26.70
2018-09-11T03:29:12.963Z,26.90
2018-09-11T03:31:41.071Z,27.00
2018-09-11T03:34:09.168Z,26.90
2018-09-11T03:36:37.263Z,27.00
2018-09-11T03:39:07.370Z,27.30
2018-09-11T03:41:36.111Z,27.70
2018-09-11T03:44:04.203Z,28.00
2018-09-11T03:46:32.289Z,27.70
2018-09-11T03:49:00.383Z,28.10
2018-09-11T03:51:28.470Z,27.90
2018-09-11T03:53:56.555Z,28.20
2018-09-11T03:56:24.654Z,29.00
2018-09-11T03:58:52.744Z,27.10
2018-09-11T04:01:21.175Z,28.60
2018-09-11T04:03:49.442Z,28.90
2018-09-11T04:06:17.684Z,29.00
2018-09-11T04:08:45.772Z,29.20
2018-09-11T04:11:13.877Z,29.20
2018-09-11T04:13:41.954Z,28.70
2018-09-11T04:16:10.048Z,29.00
2018-09-11T04:18:38.158Z,28.50
2018-09-11T04:21:06.261Z,29.10
2018-09-11T04:23:34.517Z,29.70
2018-09-11T04:26:02.910Z,29.70
2018-09-11T04:28:30.999Z,29.90
2018-09-11T04:30:59.113Z,30.10
2018-09-11T04:33:27.208Z,30.90
2018-09-11T04:35:55.306Z,31.00
2018-09-11T04:38:23.427Z,30.00
2018-09-11T04:40:51.527Z,30.20
2018-09-11T04:43:19.995Z,30.20
2018-09-11T04:45:48.089Z,30.30
2018-09-11T04:48:16.198Z,30.00
2018-09-11T04:50:44.290Z,30.00
2018-09-11T04:53:12.371Z,30.90
2018-09-11T04:55:40.458Z,31.50
2018-09-11T04:58:08.561Z,31.20
2018-09-11T05:00:36.914Z,30.70
2018-09-11T05:03:05.180Z,30.50
2018-09-11T05:05:33.275Z,31.40
2018-09-11T05:08:01.377Z,31.10
2018-09-11T05:10:29.466Z,31.10
2018-09-11T05:12:57.558Z,30.90
2018-09-11T05:15:25.642Z,30.70
2018-09-11T05:17:53.734Z,30.60
2018-09-11T05:20:21.822Z,30.20
2018-09-11T05:22:49.917Z,30.90
2018-09-11T05:25:17.990Z,31.40
2018-09-11T05:27:46.091Z,31.40
2018-09-11T05:30:14.185Z,32.50
2018-09-11T05:32:42.289Z,33.50
2018-09-11T05:35:10.379Z,34.20
2018-09-11T05:37:38.494Z,36.00
2018-09-11T05:40:06.579Z,36.30
2018-09-11T05:42:34.748Z,36.40
2018-09-11T05:45:02.835Z,36.40
2018-09-11T05:47:30.929Z,34.90
2018-09-11T05:49:59.014Z,34.30
2018-09-11T05:52:27.108Z,34.40
2018-09-11T05:54:55.194Z,33.80
2018-09-11T05:57:24.214Z,32.80
2018-09-11T05:59:52.310Z,33.50
2018-09-11T06:02:20.429Z,33.30
2018-09-11T06:04:48.522Z,34.70
2018-09-11T06:07:16.606Z,36.00
2018-09-11T06:09:44.706Z,35.60
2018-09-11T06:12:12.822Z,35.10
2018-09-11T06:14:40.955Z,35.70
2018-09-11T06:17:09.049Z,35.00
2018-09-11T06:19:37.136Z,34.60
2018-09-11T06:22:05.243Z,34.70
2018-09-11T06:24:33.348Z,34.70
2018-09-11T06:27:01.437Z,35.00
2018-09-11T06:29:29.866Z,35.70
2018-09-11T06:31:57.952Z,35.60
2018-09-11T06:34:26.077Z,34.50
2018-09-11T06:36:54.166Z,36.30
2018-09-11T06:39:22.263Z,36.70
2018-09-11T06:41:50.355Z,34.70
2018-09-11T06:44:18.491Z,33.80
2018-09-11T06:46:47.434Z,33.40
2018-09-11T06:49:15.728Z,33.30
2018-09-11T06:51:43.830Z,36.00
2018-09-11T06:54:12.062Z,31.80
2018-09-11T06:56:40.166Z,35.10
2018-09-11T06:59:08.309Z,35.60
2018-09-11T07:01:36.710Z,34.00
2018-09-11T07:04:05.146Z,32.60
2018-09-11T07:06:33.245Z,32.80
2018-09-11T07:09:01.336Z,31.30
2018-09-11T07:11:29.434Z,33.10
2018-09-11T07:13:57.522Z,34.50
2018-09-11T07:16:25.608Z,33.70
2018-09-11T07:18:53.687Z,33.10
2018-09-11T07:21:21.772Z,34.90
2018-09-11T07:23:49.850Z,36.00
2018-09-11T07:26:17.949Z,34.10
2018-09-11T07:28:46.055Z,34.10
2018-09-11T07:31:14.155Z,35.10
2018-09-11T07:33:42.406Z,35.30
2018-09-11T07:36:10.497Z,35.10
2018-09-11T07:38:38.595Z,38.10
2018-09-11T07:41:07.166Z,38.60
2018-09-11T07:43:35.255Z,34.60
2018-09-11T07:46:03.355Z,38.80
2018-09-11T07:48:31.442Z,33.80
2018-09-11T07:50:59.547Z,36.60
2018-09-11T07:53:27.621Z,32.40
2018-09-11T07:55:55.731Z,31.20
2018-09-11T07:58:23.814Z,33.30
2018-09-11T08:00:52.506Z,30.80
2018-09-11T08:03:20.646Z,31.30
2018-09-11T08:05:48.739Z,33.50
2018-09-11T08:08:16.830Z,30.80
2018-09-11T08:10:45.102Z,31.00
2018-09-11T08:13:13.326Z,28.30
2018-09-11T08:15:41.952Z,31.20
2018-09-11T08:18:10.063Z,29.80
2018-09-11T08:20:38.240Z,29.10
2018-09-11T08:23:06.318Z,27.80
2018-09-11T08:25:34.416Z,26.50
2018-09-11T08:28:02.726Z,26.90
2018-09-11T08:30:32.335Z,26.70
2018-09-11T08:33:01.452Z,28.30
2018-09-11T08:35:29.703Z,29.70
2018-09-11T08:37:57.817Z,26.10
2018-09-11T08:40:25.941Z,25.40
2018-09-11T08:42:54.156Z,24.10
2018-09-11T08:45:22.265Z,26.20
2018-09-11T08:47:50.403Z,28.40
2018-09-11T08:50:18.522Z,27.80
2018-09-11T08:52:46.643Z,23.70
2018-09-11T08:55:14.973Z,23.70
2018-09-11T08:57:43.086Z,22.90
2018-09-11T09:00:11.667Z,19.50
2018-09-11T09:02:39.766Z,20.10
2018-09-11T09:05:08.018Z,20.30
2018-09-11T09:07:36.233Z,19.70
2018-09-11T09:10:06.632Z,18.90
2018-09-11T09:12:34.718Z,20.70
2018-09-11T09:15:02.826Z,17.50
2018-09-11T09:17:30.954Z,17.50
2018-09-11T09:19:59.120Z,17.80
2018-09-11T09:22:27.463Z,17.90
2018-09-11T09:24:56.666Z,17.00
2018-09-11T09:27:24.804Z,17.60
2018-09-11T09:29:52.864Z,17.70
2018-09-11T09:32:21.299Z,16.80
2018-09-11T09:34:50.049Z,15.80
2018-09-11T09:37:18.329Z,15.40
2018-09-11T09:39:46.651Z,16.80
2018-09-11T09:42:14.747Z,12.70
2018-09-11T09:44:43.031Z,12.00
2018-09-11T09:47:11.156Z,11.40
2018-09-11T09:49:39.243Z,11.50
2018-09-11T09:52:07.419Z,10.50
2018-09-11T09:54:35.502Z,11.20
2018-09-11T09:57:03.598Z,10.90
2018-09-11T09:59:31.888Z,11.00
2018-09-11T10:02:05.203Z,9.70
2018-09-11T10:04:33.758Z,11.10
2018-09-11T10:07:01.853Z,9.80
2018-09-11T10:09:31.096Z,10.00
2018-09-11T10:11:59.217Z,9.60
2018-09-11T10:14:27.378Z,10.60
2018-09-11T10:16:55.467Z,10.90
2018-09-11T10:19:23.579Z,8.50
2018-09-11T10:21:51.654Z,8.90
2018-09-11T10:24:19.743Z,7.70
2018-09-11T10:26:47.975Z,7.60
2018-09-11T10:29:16.687Z,8.10
2018-09-11T10:31:44.798Z,7.10
2018-09-11T10:34:12.910Z,7.70
2018-09-11T10:36:41.001Z,5.70
2018-09-11T10:39:10.242Z,6.20
2018-09-11T10:41:38.675Z,5.70
2018-09-11T10:44:06.776Z,5.60
2018-09-11T10:46:34.927Z,6.00
2018-09-11T10:49:03.015Z,5.40
2018-09-11T10:51:31.119Z,5.50
2018-09-11T10:53:59.379Z,5.60
2018-09-11T10:56:27.643Z,6.00
2018-09-11T10:58:55.735Z,4.30
2018-09-11T11:01:23.867Z,4.20
2018-09-11T11:03:51.954Z,4.10
2018-09-11T11:06:20.055Z,3.30
2018-09-11T11:08:48.195Z,3.00
2018-09-11T11:11:16.286Z,3.80
2018-09-11T11:13:44.887Z,2.60
2018-09-11T11:16:12.968Z,2.90
2018-09-11T11:18:41.064Z,2.90
2018-09-11T11:21:09.475Z,2.40
2018-09-11T11:23:37.601Z,1.20
2018-09-11T11:26:05.766Z,1.50
2018-09-11T11:28:33.890Z,2.80
2018-09-11T11:31:02.101Z,2.10
2018-09-11T11:33:30.263Z,2.00
2018-09-11T11:35:58.414Z,1.80
2018-09-11T11:38:26.463Z,1.00
2018-09-11T11:40:54.539Z,1.00
2018-09-11T11:43:22.618Z,1.00
2018-09-11T11:45:52.889Z,1.20
2018-09-11T11:48:21.057Z,1.00
2018-09-11T11:50:49.082Z,1.00
2018-09-11T11:53:17.167Z,1.00
2018-09-11T11:55:45.249Z,1.00
2018-09-11T11:58:13.344Z,1.00
2018-09-11T12:00:41.416Z,1.00
2018-09-11T12:03:09.535Z,1.00
2018-09-11T12:05:37.786Z,1.00
2018-09-11T12:08:05.875Z,1.00
2018-09-11T12:10:33.955Z,1.00
2018-09-11T12:13:02.068Z,1.00
2018-09-11T12:15:30.222Z,1.00
2018-09-11T12:17:58.352Z,1.00
2018-09-11T12:20:26.446Z,1.00
2018-09-11T12:22:54.531Z,1.00
2018-09-11T12:25:22.637Z,1.00
2018-09-11T12:27:50.720Z,1.00
2018-09-11T12:30:18.813Z,1.00
2018-09-11T12:32:46.898Z,1.00
2018-09-11T12:35:14.998Z,1.00
2018-09-11T12:37:43.087Z,1.00
2018-09-11T12:40:11.369Z,1.00
2018-09-11T12:42:39.434Z,1.00
2018-09-11T12:45:07.531Z,1.00
2018-09-11T12:47:35.971Z,1.00
2018-09-11T12:50:03.726Z,1.00
2018-09-11T12:52:31.906Z,1.00
2018-09-11T12:54:59.927Z,1.00
2018-09-11T12:57:28.006Z,1.00
2018-09-11T12:59:56.286Z,1.00
2018-09-11T13:02:24.447Z,1.00
2018-09-11T13:04:52.467Z,1.00
2018-09-11T13:07:20.563Z,1.00
2018-09-11T13:09:49.314Z,1.00
2018-09-11T13:12:17.465Z,1.00
2018-09-11T13:14:45.767Z,1.00
2018-09-11T13:17:13.926Z,1.00
2018-09-11T13:19:42.174Z,1.00
2018-09-11T13:22:12.312Z,1.00
2018-09-11T13:24:40.438Z,1.00
2018-09-11T13:27:08.562Z,1.00
2018-09-11T13:29:36.735Z,1.00
2018-09-11T13:32:04.890Z,1.00
2018-09-11T13:34:32.979Z,1.00
2018-09-11T13:37:02.092Z,1.00
2018-09-11T13:39:30.212Z,1.00
2018-09-11T13:41:58.299Z,1.00
2018-09-11T13:44:26.590Z,1.00
2018-09-11T13:46:54.739Z,1.00
2018-09-11T13:49:22.807Z,1.00
2018-09-11T13:51:50.882Z,1.00
2018-09-11T13:54:19.174Z,1.00
2018-09-11T13:56:47.530Z,1.00
2018-09-11T13:59:15.711Z,1.00
2018-09-11T14:01:44.003Z,1.00
2018-09-11T14:04:12.268Z,1.00
2018-09-11T14:06:40.363Z,1.00
2018-09-11T14:09:10.592Z,1.00
2018-09-11T14:11:38.690Z,1.00
2018-09-11T14:14:06.770Z,1.00
2018-09-11T14:16:35.091Z,1.00
2018-09-11T14:19:03.175Z,1.00
2018-09-11T14:21:31.317Z,1.00
2018-09-11T14:23:59.398Z,1.00
2018-09-11T14:26:27.578Z,1.00
2018-09-11T14:28:55.813Z,1.00
2018-09-11T14:31:23.958Z,1.00
2018-09-11T14:33:52.014Z,1.00
2018-09-11T14:36:20.115Z,1.00
2018-09-11T14:38:48.341Z,1.00
2018-09-11T14:41:16.446Z,1.00
2018-09-11T14:43:44.799Z,1.00
2018-09-11T14:46:12.921Z,1.00
2018-09-11T14:48:41.034Z,1.00
2018-09-11T14:51:09.159Z,1.00
2018-09-11T14:53:37.256Z,1.00
2018-09-11T14:56:05.519Z,1.00
2018-09-11T14:58:33.602Z,1.00
2018-09-11T15:01:01.687Z,1.00
2018-09-11T15:03:29.784Z,1.00
2018-09-11T15:05:57.896Z,1.00
2018-09-11T15:08:25.986Z,1.00
2018-09-11T15:10:54.085Z,1.00
2018-09-11T15:13:22.154Z,1.00
2018-09-11T15:15:50.241Z,1.00
2018-09-11T15:18:18.325Z,1.00
2018-09-11T15:20:46.422Z,1.00
2018-09-11T15:23:14.511Z,1.00
2018-09-11T15:25:42.706Z,1.00
2018-09-11T15:28:10.784Z,1.00
2018-09-11T15:30:38.928Z,1.00
2018-09-11T15:33:07.222Z,1.00
2018-09-11T15:35:35.338Z,1.00
2018-09-11T15:38:03.418Z,1.00
2018-09-11T15:40:31.509Z,1.00
2018-09-11T15:42:59.602Z,1.00
2018-09-11T15:45:27.716Z,1.00
2018-09-11T15:47:55.807Z,1.00
2018-09-11T15:50:23.895Z,1.00
2018-09-11T15:52:51.987Z,1.00
2018-09-11T15:55:20.083Z,1.00
2018-09-11T15:57:48.170Z,1.00
2018-09-11T16:00:16.282Z,1.00
2018-09-11T16:02:44.394Z,1.00
2018-09-11T16:05:12.494Z,1.00
2018-09-11T16:07:40.930Z,1.00
2018-09-11T16:10:09.319Z,1.00
2018-09-11T16:12:37.439Z,1.00
2018-09-11T16:15:05.789Z,1.00
2018-09-11T16:17:33.827Z,1.00
2018-09-11T16:20:01.914Z,1.00
2018-09-11T16:22:29.999Z,1.00
2018-09-11T16:24:58.083Z,1.00
2018-09-11T16:27:26.226Z,1.00
2018-09-11T16:29:54.406Z,1.00
2018-09-11T16:32:22.682Z,1.00
2018-09-11T16:34:50.831Z,1.00
2018-09-11T16:37:19.087Z,1.00
2018-09-11T16:39:47.184Z,1.00
2018-09-11T16:42:15.280Z,1.00
2018-09-11T16:44:43.367Z,1.00
2018-09-11T16:47:11.688Z,1.00
2018-09-11T16:49:39.786Z,1.00
2018-09-11T16:52:07.899Z,1.00
2018-09-11T16:54:35.996Z,1.00
2018-09-11T16:57:04.271Z,1.00
2018-09-11T16:59:33.247Z,1.00
2018-09-11T17:02:01.369Z,1.00
2018-09-11T17:04:29.436Z,1.00
2018-09-11T17:06:57.550Z,1.00
2018-09-11T17:09:25.683Z,1.00
2018-09-11T17:11:54.346Z,1.00
2018-09-11T17:14:22.462Z,1.00
2018-09-11T17:16:50.650Z,1.00
2018-09-11T17:19:19.054Z,1.00
2018-09-11T17:21:47.174Z,1.00
2018-09-11T17:24:15.253Z,1.00
2018-09-11T17:26:43.669Z,1.00
2018-09-11T17:29:12.194Z,1.00
2018-09-11T17:31:40.294Z,1.00
2018-09-11T17:34:08.410Z,1.00
2018-09-11T17:36:36.567Z,1.00
2018-09-11T17:39:08.339Z,1.00
2018-09-11T17:41:36.565Z,1.00
2018-09-11T17:44:04.637Z,1.00
2018-09-11T17:46:32.763Z,1.00
2018-09-11T17:49:01.235Z,1.00
2018-09-11T17:51:29.247Z,1.00
2018-09-11T17:53:57.347Z,1.00
2018-09-11T17:56:25.482Z,1.00
2018-09-11T17:58:53.782Z,1.00
2018-09-11T18:01:22.080Z,1.00
2018-09-11T18:03:50.171Z,1.00
2018-09-11T18:06:18.267Z,1.00
2018-09-11T18:08:46.375Z,1.00
2018-09-11T18:11:14.483Z,1.00
2018-09-11T18:13:42.574Z,1.00
2018-09-11T18:16:10.655Z,1.00
2018-09-11T18:18:38.914Z,1.00
2018-09-11T18:21:07.183Z,1.00
2018-09-11T18:23:35.282Z,1.00
2018-09-11T18:26:03.397Z,1.00
2018-09-11T18:28:31.479Z,1.00
2018-09-11T18:30:59.568Z,1.00
2018-09-11T18:33:27.659Z,1.00
2018-09-11T18:35:55.803Z,1.00
2018-09-11T18:38:23.987Z,1.00
2018-09-11T18:40:52.074Z,1.70
2018-09-11T18:43:20.173Z,3.00
2018-09-11T18:45:48.319Z,5.00
2018-09-11T18:48:16.410Z,2.80
2018-09-11T18:50:44.504Z,2.20
2018-09-11T18:53:12.618Z,2.00
2018-09-11T18:55:40.743Z,1.80
2018-09-11T18:58:08.932Z,1.70
2018-09-11T19:00:36.950Z,1.70
2018-09-11T19:03:05.055Z,2.00
2018-09-11T19:05:33.149Z,2.10
2018-09-11T19:08:01.756Z,2.50
2018-09-11T19:10:30.431Z,2.40
2018-09-11T19:12:58.545Z,2.90
2018-09-11T19:15:26.756Z,3.20
2018-09-11T19:17:54.850Z,3.50
2018-09-11T19:20:23.147Z,3.80
2018-09-11T19:22:51.214Z,4.20
2018-09-11T19:25:19.298Z,4.40
2018-09-11T19:27:47.395Z,4.60
2018-09-11T19:30:15.470Z,4.70
2018-09-11T19:32:43.551Z,4.70
2018-09-11T19:35:11.643Z,5.10
2018-09-11T19:37:39.786Z,4.90
2018-09-11T19:40:07.895Z,4.80
2018-09-11T19:42:36.039Z,5.00
2018-09-11T19:45:04.523Z,5.30
2018-09-11T19:47:32.655Z,5.30
2018-09-11T19:50:00.954Z,5.60
2018-09-11T19:52:29.606Z,6.00
2018-09-11T19:54:57.687Z,5.90
2018-09-11T19:57:26.011Z,5.80
2018-09-11T19:59:54.118Z,6.10
2018-09-11T20:02:22.227Z,6.50
2018-09-11T20:04:50.383Z,6.70
2018-09-11T20:07:18.531Z,6.90
2018-09-11T20:09:46.627Z,7.00
2018-09-11T20:12:14.713Z,6.90
2018-09-11T20:14:42.814Z,6.70
2018-09-11T20:17:10.895Z,6.90
2018-09-11T20:19:39.046Z,7.00
2018-09-11T20:22:08.474Z,8.70
2018-09-11T20:24:36.619Z,9.80
2018-09-11T20:27:04.715Z,9.40
2018-09-11T20:29:33.103Z,9.50
2018-09-11T20:32:01.271Z,10.90
2018-09-11T20:34:29.310Z,11.20
2018-09-11T20:36:57.565Z,10.40
2018-09-11T20:39:25.652Z,9.50
2018-09-11T20:41:53.729Z,8.60
2018-09-11T20:44:21.828Z,9.50
2018-09-11T20:46:49.910Z,12.50
2018-09-11T20:49:18.014Z,13.50
2018-09-11T20:51:46.376Z,12.60
2018-09-11T20:54:14.472Z,12.70
2018-09-11T20:56:42.573Z,14.00
2018-09-11T20:59:10.658Z,14.50
2018-09-11T21:01:38.792Z,15.40
2018-09-11T21:04:07.013Z,14.20
2018-09-11T21:06:35.115Z,13.50
2018-09-11T21:09:04.254Z,13.80
2018-09-11T21:11:32.391Z,15.00
2018-09-11T21:14:00.499Z,16.30
2018-09-11T21:16:28.620Z,15.20
2018-09-11T21:18:56.731Z,16.00
2018-09-11T21:21:24.823Z,17.10
2018-09-11T21:23:52.958Z,16.70
2018-09-11T21:26:21.058Z,15.70
2018-09-11T21:28:49.235Z,15.50
2018-09-11T21:31:17.394Z,15.50
2018-09-11T21:33:45.689Z,15.50
2018-09-11T21:36:13.815Z,15.90
2018-09-11T21:38:41.899Z,16.30
2018-09-11T21:41:10.114Z,16.10
2018-09-11T21:43:38.245Z,16.10
2018-09-11T21:46:06.325Z,16.60
2018-09-11T21:48:34.410Z,16.80
2018-09-11T21:51:02.525Z,17.80
2018-09-11T21:53:30.594Z,18.30
2018-09-11T21:55:58.699Z,18.50
2018-09-11T21:58:26.779Z,19.00
2018-09-11T22:01:00.214Z,17.90
2018-09-11T22:03:28.306Z,17.40
2018-09-11T22:05:56.431Z,17.60
2018-09-11T22:08:24.523Z,17.80
2018-09-11T22:10:52.622Z,17.40
2018-09-11T22:13:20.730Z,17.30
2018-09-11T22:15:48.806Z,17.20
2018-09-11T22:18:16.902Z,17.90
2018-09-11T22:20:44.998Z,17.90
2018-09-11T22:23:13.082Z,17.90
2018-09-11T22:25:41.176Z,17.40
2018-09-11T22:28:09.277Z,17.50
2018-09-11T22:30:37.355Z,17.40
2018-09-11T22:33:05.455Z,17.10
2018-09-11T22:35:33.544Z,17.60
2018-09-11T22:38:01.744Z,17.50
2018-09-11T22:40:29.822Z,17.30
2018-09-11T22:42:57.967Z,17.20
2018-09-11T22:45:26.003Z,16.90
2018-09-11T22:47:54.104Z,17.40
2018-09-11T22:50:22.182Z,17.60
2018-09-11T22:52:50.282Z,17.40
2018-09-11T22:55:18.380Z,17.70
2018-09-11T22:57:46.491Z,18.80
2018-09-11T23:00:14.573Z,18.80
2018-09-11T23:02:42.677Z,19.00
2018-09-11T23:05:10.764Z,18.60
2018-09-11T23:07:38.858Z,19.00
2018-09-11T23:10:06.994Z,18.90
2018-09-11T23:12:35.110Z,19.70
2018-09-11T23:15:03.203Z,19.50
2018-09-11T23:17:31.316Z,19.20
2018-09-11T23:19:59.415Z,18.50
2018-09-11T23:22:27.503Z,19.00
2018-09-11T23:24:55.602Z,19.50
2018-09-11T23:27:23.706Z,19.00
2018-09-11T23:29:51.815Z,19.10
2018-09-11T23:32:20.123Z,18.10
2018-09-11T23:34:48.273Z,17.50
2018-09-11T23:37:16.328Z,17.50
2018-09-11T23:39:44.434Z,19.20
2018-09-11T23:42:12.710Z,19.20
2018-09-11T23:44:40.805Z,19.60
2018-09-11T23:47:08.890Z,20.30
2018-09-11T23:49:36.987Z,20.50
2018-09-11T23:52:05.091Z,21.10
2018-09-11T23:54:33.187Z,21.50
2018-09-11T23:57:01.292Z,21.80
2018-09-11T23:59:29.370Z,22.50
